Time;durP1;ratioP1;P1;durP2;ratioP2;P2;SDS_P1;SDS_P2;PMS_P1;PMS_P2;Temp;Humidity;BMP_temperature;BMP_pressure;BME280_temperature;BME280_humidity;BME280_pressure;Samples;Min_cycle;Max_cycle;Signal;HPM_P1;HPM_P2
2021/10/30 00:02:05;;;;;;;;;7.00;7.00;;;;;19.27;50.82;99988.03;5058080;28;46286;-63
2021/10/30 00:04:31;;;;;;;;;6.33;6.33;;;;;19.27;51.13;99975.56;5058062;28;45365;-63
2021/10/30 00:06:58;;;;;;;;;10.67;9.00;;;;;19.26;51.06;99973.84;5058168;28;45939;-63
2021/10/30 00:09:24;;;;;;;;;10.33;8.00;;;;;19.25;50.83;99965.91;5058241;28;45204;-66
2021/10/30 00:11:49;;;;;;;;;10.33;7.67;;;;;19.26;50.87;99962.31;5057769;28;47073;-65
2021/10/30 00:14:15;;;;;;;;;9.67;9.67;;;;;19.25;51.01;99958.75;5057849;28;45403;-64
2021/10/30 00:16:40;;;;;;;;;10.33;9.00;;;;;19.27;51.12;99956.91;5058102;28;45413;-63
2021/10/30 00:19:06;;;;;;;;;4.67;4.67;;;;;19.27;51.09;99948.06;5058097;28;45341;-63
2021/10/30 00:21:31;;;;;;;;;9.00;8.33;;;;;19.26;50.95;99947.19;5057680;28;46262;-63
2021/10/30 00:23:57;;;;;;;;;12.33;10.67;;;;;19.26;51.10;99947.19;5057843;28;45212;-66
2021/10/30 00:26:22;;;;;;;;;9.33;8.67;;;;;19.27;50.93;99948.06;5057723;28;45253;-66
2021/10/30 00:28:48;;;;;;;;;9.00;8.67;;;;;19.26;51.21;99944.53;5057972;28;45478;-66
2021/10/30 00:31:13;;;;;;;;;9.33;9.33;;;;;19.25;51.20;99936.59;5057224;28;46146;-66
2021/10/30 00:33:39;;;;;;;;;9.00;8.00;;;;;19.25;51.24;99929.44;5057168;28;45256;-64
2021/10/30 00:36:05;;;;;;;;;10.33;9.00;;;;;19.25;51.12;99934.78;5057829;28;45631;-66
2021/10/30 00:38:30;;;;;;;;;11.00;10.33;;;;;19.25;51.06;99929.44;5057514;28;45334;-64
2021/10/30 00:40:55;;;;;;;;;8.67;8.00;;;;;19.26;51.15;99933.00;5057687;28;46939;-65
2021/10/30 00:43:21;;;;;;;;;12.33;10.33;;;;;19.25;50.87;99931.25;5057186;28;45333;-64
2021/10/30 00:45:47;;;;;;;;;8.00;7.00;;;;;19.25;51.18;99929.44;5057438;28;45338;-66
2021/10/30 00:48:14;;;;;;;;;8.33;7.33;;;;;19.26;51.27;99925.00;5057739;28;45680;-66
2021/10/30 00:50:41;;;;;;;;;6.67;6.67;;;;;19.25;51.10;99924.13;5057111;28;46502;-66
2021/10/30 00:53:08;;;;;;;;;10.67;8.00;;;;;19.26;50.97;99912.56;5057246;28;45375;-66
2021/10/30 00:55:33;;;;;;;;;10.00;9.00;;;;;19.25;51.27;99913.47;5057374;28;45313;-65
2021/10/30 00:58:03;;;;;;;;;8.67;8.67;;;;;19.25;51.19;99913.47;5057450;28;45380;-64
2021/10/30 01:00:29;;;;;;;;;8.33;8.00;;;;;19.26;50.83;99919.66;5056797;28;46120;-64
2021/10/30 01:02:56;;;;;;;;;7.33;7.33;;;;;19.25;50.90;99910.78;5056756;28;45310;-66
2021/10/30 01:05:21;;;;;;;;;8.67;7.67;;;;;19.25;51.05;99897.47;5057044;28;45398;-67
2021/10/30 01:07:47;;;;;;;;;9.00;8.33;;;;;19.26;51.20;99904.56;5057293;28;45318;-65
2021/10/30 01:10:13;;;;;;;;;10.67;9.33;;;;;19.26;51.08;99898.34;5056736;28;46466;-65
2021/10/30 01:12:38;;;;;;;;;8.33;8.33;;;;;19.26;51.27;99899.22;5057034;28;45378;-66
2021/10/30 01:15:05;;;;;;;;;8.67;7.00;;;;;19.26;51.15;99888.56;5057160;28;45430;-66
2021/10/30 01:17:31;;;;;;;;;7.00;7.00;;;;;19.25;51.01;99889.47;5056851;28;45356;-64
2021/10/30 01:19:57;;;;;;;;;8.00;8.00;;;;;19.25;51.14;99878.81;5056669;28;46155;-66
2021/10/30 01:22:23;;;;;;;;;8.50;8.50;;;;;19.26;50.82;99888.56;5056545;28;45347;-64
2021/10/30 01:24:50;;;;;;;;;12.00;9.00;;;;;19.26;51.11;99877.03;5056989;28;45364;-64
2021/10/30 01:27:17;;;;;;;;;10.33;8.00;;;;;19.25;51.16;99868.16;5057085;28;45550;-65
2021/10/30 01:29:43;;;;;;;;;7.33;6.67;;;;;19.25;51.09;99869.97;5056265;28;45402;-65
2021/10/30 01:32:09;;;;;;;;;8.67;8.67;;;;;19.25;51.23;99870.84;5056052;28;45494;-64
2021/10/30 01:34:34;;;;;;;;;9.67;6.67;;;;;19.26;51.36;99867.25;5056277;28;45404;-66
2021/10/30 01:37:00;;;;;;;;;8.33;7.67;;;;;19.26;51.14;99869.03;5056939;28;45294;-67
2021/10/30 01:39:25;;;;;;;;;10.00;8.00;;;;;19.25;51.23;99864.66;5056494;28;46206;-65
2021/10/30 01:41:51;;;;;;;;;7.67;7.67;;;;;19.25;51.13;99864.66;5056709;28;45313;-64
2021/10/30 01:44:17;;;;;;;;;8.00;8.00;;;;;19.25;51.06;99852.19;5056649;28;45448;-65
2021/10/30 01:46:42;;;;;;;;;9.00;7.67;;;;;19.25;51.22;99852.19;5056527;28;45307;-65
2021/10/30 01:49:07;;;;;;;;;9.00;7.00;;;;;19.25;51.30;99854.84;5056437;28;47308;-65
2021/10/30 01:51:33;;;;;;;;;8.33;7.00;;;;;19.25;51.21;99846.00;5056368;28;45454;-65
2021/10/30 01:54:00;;;;;;;;;8.67;8.67;;;;;19.26;51.18;99842.41;5056579;28;45263;-65
2021/10/30 01:56:26;;;;;;;;;7.67;7.00;;;;;19.26;51.29;99839.75;5056807;28;45556;-64
2021/10/30 01:58:51;;;;;;;;;7.33;7.00;;;;;19.26;51.22;99827.28;5056097;28;46460;-64
2021/10/30 02:01:17;;;;;;;;;6.67;6.00;;;;;19.26;51.38;99813.09;5056265;28;45191;-64
2021/10/30 02:03:42;;;;;;;;;9.67;8.67;;;;;19.26;51.31;99821.09;5056157;28;45738;-65
2021/10/30 02:06:08;;;;;;;;;10.33;8.00;;;;;19.25;51.34;99817.53;5056528;28;45145;-64
2021/10/30 02:08:34;;;;;;;;;7.67;6.67;;;;;19.26;51.35;99813.97;5056208;28;47292;-65
2021/10/30 02:11:00;;;;;;;;;9.67;7.00;;;;;19.26;51.38;99803.31;5055992;28;45425;-64
2021/10/30 02:13:26;;;;;;;;;11.67;9.00;;;;;19.26;51.06;99797.13;5056386;28;45252;-65
2021/10/30 02:15:52;;;;;;;;;8.00;6.33;;;;;19.27;51.25;99793.53;5056155;28;45349;-64
2021/10/30 02:18:18;;;;;;;;;7.33;6.67;;;;;19.26;51.55;99791.78;5055863;28;46223;-65
2021/10/30 02:20:44;;;;;;;;;8.00;7.33;;;;;19.26;51.35;99789.13;5055788;28;45322;-64
2021/10/30 02:23:10;;;;;;;;;9.33;6.67;;;;;19.25;51.37;99776.72;5055969;28;45366;-64
2021/10/30 02:25:36;;;;;;;;;12.33;8.33;;;;;19.26;51.26;99771.34;5056460;28;45496;-64
2021/10/30 02:28:01;;;;;;;;;8.00;7.33;;;;;19.26;51.23;99762.47;5055950;28;46918;-64
2021/10/30 02:30:26;;;;;;;;;7.67;7.67;;;;;19.26;51.19;99766.00;5055874;28;45317;-66
2021/10/30 02:32:52;;;;;;;;;7.00;7.00;;;;;19.27;51.31;99766.91;5055878;28;45291;-64
2021/10/30 02:35:18;;;;;;;;;8.00;7.67;;;;;19.26;51.33;99760.69;5055826;28;45307;-64
2021/10/30 02:37:44;;;;;;;;;7.33;7.33;;;;;19.25;51.39;99756.28;5055728;28;47005;-64
2021/10/30 02:40:10;;;;;;;;;6.67;5.33;;;;;19.26;51.74;99750.03;5055655;28;45439;-64
2021/10/30 02:42:35;;;;;;;;;5.67;5.67;;;;;19.26;51.23;99757.16;5056096;28;45396;-64
2021/10/30 02:45:03;;;;;;;;;7.67;7.67;;;;;19.26;51.27;99742.03;5058073;28;45314;-64
2021/10/30 02:47:29;;;;;;;;;6.67;6.67;;;;;19.26;51.41;99738.50;5058887;28;47188;-64
2021/10/30 02:49:54;;;;;;;;;7.67;7.67;;;;;19.26;51.29;99744.69;5059119;28;45264;-64
2021/10/30 02:52:20;;;;;;;;;8.67;6.67;;;;;19.26;51.47;99739.38;5059327;28;45406;-64
2021/10/30 02:54:46;;;;;;;;;10.33;7.33;;;;;19.26;51.30;99731.38;5059364;28;45513;-64
2021/10/30 02:57:11;;;;;;;;;7.00;7.00;;;;;19.26;51.30;99717.19;5058949;28;46059;-64
2021/10/30 02:59:37;;;;;;;;;6.67;6.67;;;;;19.25;51.44;99721.63;5059141;28;45297;-63
2021/10/30 03:02:02;;;;;;;;;7.67;7.67;;;;;19.25;51.32;99713.63;5059122;28;45256;-63
2021/10/30 03:04:28;;;;;;;;;6.67;6.67;;;;;19.25;51.40;99708.31;5059167;28;45388;-64
2021/10/30 03:06:53;;;;;;;;;7.67;7.67;;;;;19.25;51.58;99694.16;5058683;28;46046;-64
2021/10/30 03:09:19;;;;;;;;;5.67;5.67;;;;;19.26;51.30;99691.41;5058939;28;45560;-64
2021/10/30 03:11:44;;;;;;;;;7.33;6.67;;;;;19.25;51.46;99689.66;5059043;28;45346;-65
2021/10/30 03:14:10;;;;;;;;;8.00;8.00;;;;;19.25;51.54;99673.69;5059084;28;45381;-64
2021/10/30 03:16:35;;;;;;;;;5.33;5.33;;;;;19.24;51.30;99669.28;5059066;28;45365;-66
2021/10/30 03:19:00;;;;;;;;;4.67;4.67;;;;;19.25;51.24;99663.03;5058484;28;45415;-65
2021/10/30 03:21:26;;;;;;;;;8.00;7.67;;;;;19.25;51.56;99652.38;5059012;28;45368;-65
2021/10/30 03:23:51;;;;;;;;;7.00;7.00;;;;;19.26;51.27;99663.91;5058777;28;45383;-65
2021/10/30 03:26:17;;;;;;;;;8.00;8.00;;;;;19.25;51.29;99644.38;5058490;28;46982;-64
2021/10/30 03:28:42;;;;;;;;;7.00;7.00;;;;;19.25;51.52;99641.72;5058638;28;45366;-65
2021/10/30 03:31:08;;;;;;;;;9.00;7.33;;;;;19.26;51.23;99643.47;5058662;28;45343;-66
2021/10/30 03:33:33;;;;;;;;;8.00;8.00;;;;;19.26;51.59;99638.13;5058769;28;45489;-65
2021/10/30 03:35:59;;;;;;;;;5.67;5.67;;;;;19.26;51.34;99629.25;5058300;28;46158;-64
2021/10/30 03:38:24;;;;;;;;;10.00;6.67;;;;;19.25;51.58;99628.38;5058332;28;45239;-66
2021/10/30 03:40:50;;;;;;;;;6.67;6.67;;;;;19.26;51.42;99626.59;5058435;28;45330;-65
2021/10/30 03:43:16;;;;;;;;;6.33;6.33;;;;;19.25;51.43;99623.06;5058667;28;45470;-64
2021/10/30 03:45:41;;;;;;;;;6.67;6.67;;;;;19.25;51.50;99615.06;5058396;28;46997;-67
2021/10/30 03:48:10;;;;;;;;;8.00;8.00;;;;;19.26;51.62;99622.16;5058515;28;45267;-64
2021/10/30 03:50:37;;;;;;;;;6.67;6.67;;;;;19.26;51.61;99622.16;5058336;28;45428;-65
2021/10/30 03:53:04;;;;;;;;;7.33;7.33;;;;;19.26;51.47;99622.16;5058715;28;45406;-64
2021/10/30 03:55:30;;;;;;;;;7.00;5.67;;;;;19.27;51.28;99628.34;5057475;28;46334;-64
2021/10/30 03:57:56;;;;;;;;;6.00;6.00;;;;;19.26;51.34;99626.59;5058142;28;45386;-65
2021/10/30 04:00:21;;;;;;;;;9.67;9.00;;;;;19.26;51.39;99619.47;5058138;28;45320;-66
2021/10/30 04:02:46;;;;;;;;;7.67;6.67;;;;;19.26;51.44;99619.47;5058503;28;45381;-65
2021/10/30 04:05:13;;;;;;;;;9.00;7.00;;;;;19.27;51.33;99629.19;5057895;28;47107;-65
2021/10/30 04:07:38;;;;;;;;;6.67;6.67;;;;;19.26;51.68;99615.94;5058007;28;45445;-65
2021/10/30 04:10:04;;;;;;;;;10.00;7.67;;;;;19.26;51.51;99614.16;5058043;28;45420;-66
2021/10/30 04:12:30;;;;;;;;;8.00;6.00;;;;;19.27;51.66;99607.03;5058240;28;45361;-64
2021/10/30 04:14:55;;;;;;;;;9.67;7.67;;;;;19.27;51.55;99607.88;5057770;28;47179;-65
2021/10/30 04:17:21;;;;;;;;;7.00;6.00;;;;;19.28;51.54;99611.44;5058070;28;45427;-64
2021/10/30 04:19:46;;;;;;;;;8.00;7.00;;;;;19.27;51.33;99605.22;5057968;28;45353;-65
2021/10/30 04:22:12;;;;;;;;;8.33;8.33;;;;;19.27;51.44;99610.53;5057832;28;45314;-66
2021/10/30 04:24:37;;;;;;;;;8.00;7.67;;;;;19.26;51.30;99607.94;5057403;28;46104;-65
2021/10/30 04:27:03;;;;;;;;;7.67;6.33;;;;;19.27;51.28;99613.22;5057907;28;45309;-64
2021/10/30 04:29:28;;;;;;;;;7.67;6.00;;;;;19.27;51.33;99618.53;5057781;28;45264;-65
2021/10/30 04:31:56;;;;;;;;;10.33;8.33;;;;;19.26;51.77;99616.81;5057883;28;45392;-66
2021/10/30 04:34:30;;;;;;;;;7.67;7.00;;;;;19.27;51.58;99620.34;5056901;28;47492;-64
2021/10/30 04:36:57;;;;;;;;;6.00;5.33;;;;;19.27;51.36;99618.53;5057304;28;45371;-65
2021/10/30 04:39:23;;;;;;;;;5.67;5.00;;;;;19.27;51.35;99613.22;5057414;28;45479;-64
2021/10/30 04:41:48;;;;;;;;;6.00;6.00;;;;;19.26;51.38;99606.16;5057739;28;45366;-65
2021/10/30 04:44:13;;;;;;;;;6.00;6.00;;;;;19.26;51.45;99611.50;5057429;28;45641;-64
2021/10/30 04:46:39;;;;;;;;;8.00;8.00;;;;;19.26;51.55;99608.81;5057043;28;45426;-65
2021/10/30 04:49:06;;;;;;;;;5.00;5.00;;;;;19.27;51.44;99609.69;5057533;28;45449;-64
2021/10/30 04:51:32;;;;;;;;;5.67;5.67;;;;;19.27;51.64;99607.88;5057435;28;45535;-64
2021/10/30 04:53:57;;;;;;;;;6.00;5.00;;;;;19.27;51.37;99602.56;5057217;28;46753;-65
2021/10/30 04:56:22;;;;;;;;;7.00;7.00;;;;;19.27;51.39;99605.22;5057143;28;45331;-66
2021/10/30 04:58:48;;;;;;;;;5.67;5.33;;;;;19.27;51.52;99599.88;5057089;28;45413;-64
2021/10/30 05:01:16;;;;;;;;;5.33;5.33;;;;;19.27;51.61;99586.56;5056391;28;45455;-64
2021/10/30 05:03:42;;;;;;;;;6.67;6.67;;;;;19.26;51.67;99584.84;5056966;28;45517;-66
2021/10/30 05:06:09;;;;;;;;;7.67;7.67;;;;;19.25;51.43;99577.75;5056748;28;45220;-65
2021/10/30 05:08:34;;;;;;;;;6.00;6.00;;;;;19.26;51.51;99579.53;5056390;28;45396;-65
2021/10/30 05:11:00;;;;;;;;;5.33;5.33;;;;;19.28;51.56;99580.34;5057036;28;45491;-65
2021/10/30 05:13:25;;;;;;;;;7.67;5.67;;;;;19.28;51.51;99576.78;5057115;28;46119;-65
2021/10/30 05:15:51;;;;;;;;;7.33;6.33;;;;;19.26;51.38;99579.53;5056930;28;45464;-64
2021/10/30 05:18:16;;;;;;;;;5.00;5.00;;;;;19.26;51.45;99579.53;5057105;28;45459;-64
2021/10/30 05:20:42;;;;;;;;;5.00;5.00;;;;;19.26;51.77;99574.19;5057079;28;45370;-66
2021/10/30 05:23:08;;;;;;;;;7.67;6.00;;;;;19.28;51.44;99571.47;5056482;28;47107;-65
2021/10/30 05:25:33;;;;;;;;;8.00;6.67;;;;;19.27;51.74;99573.25;5056825;28;45385;-67
2021/10/30 05:27:59;;;;;;;;;7.00;6.00;;;;;19.27;51.69;99570.59;5056931;28;45408;-64
2021/10/30 05:30:25;;;;;;;;;5.33;5.33;;;;;19.28;51.66;99569.66;5057052;28;45369;-65
2021/10/30 05:32:50;;;;;;;;;8.00;6.67;;;;;19.28;51.35;99574.13;5056686;28;46368;-64
2021/10/30 05:35:16;;;;;;;;;5.00;5.00;;;;;19.27;51.73;99572.41;5056203;28;45255;-65
2021/10/30 05:37:41;;;;;;;;;4.67;4.67;;;;;19.27;51.62;99575.06;5056707;28;45265;-65
2021/10/30 05:40:09;;;;;;;;;6.67;5.67;;;;;19.28;51.90;99574.13;5057111;28;45433;-65
2021/10/30 05:42:36;;;;;;;;;6.00;4.00;;;;;19.28;51.69;99569.66;5056515;28;46230;-64
2021/10/30 05:45:05;;;;;;;;;6.33;5.33;;;;;19.27;51.35;99567.91;5056423;28;45313;-64
2021/10/30 05:47:32;;;;;;;;;6.00;6.00;;;;;19.27;51.47;99575.06;5056642;28;45227;-65
2021/10/30 05:49:58;;;;;;;;;6.00;5.00;;;;;19.27;51.47;99572.41;5056516;28;45314;-64
2021/10/30 05:52:23;;;;;;;;;5.00;5.00;;;;;19.27;51.44;99572.41;5056248;28;46095;-63
2021/10/30 05:54:48;;;;;;;;;5.00;5.00;;;;;19.27;51.76;99575.91;5056265;28;45228;-65
2021/10/30 05:57:14;;;;;;;;;7.00;6.00;;;;;19.27;51.52;99559.94;5056505;28;45413;-64
2021/10/30 05:59:39;;;;;;;;;6.00;6.00;;;;;19.27;51.73;99559.09;5056593;28;45335;-64
2021/10/30 06:02:05;;;;;;;;;6.00;6.00;;;;;19.27;51.59;99559.94;5056323;28;46933;-64
2021/10/30 06:04:31;;;;;;;;;7.33;6.00;;;;;19.27;51.66;99557.25;5056252;28;45344;-64
2021/10/30 06:06:57;;;;;;;;;7.00;6.00;;;;;19.27;51.67;99562.59;5060817;27;45448;-64
2021/10/30 06:09:22;;;;;;;;;7.00;5.00;;;;;19.28;51.74;99559.00;5058461;28;45369;-65
2021/10/30 06:11:47;;;;;;;;;6.33;6.33;;;;;19.29;51.67;99562.56;5094599;27;47152;-64
2021/10/30 06:14:13;;;;;;;;;5.67;5.67;;;;;19.28;51.63;99564.34;5096653;27;45456;-66
2021/10/30 06:16:38;;;;;;;;;4.00;3.00;;;;;19.29;51.56;99574.06;5096783;27;45336;-64
2021/10/30 06:19:04;;;;;;;;;6.67;5.00;;;;;19.29;51.63;99562.56;5097969;27;45547;-64
2021/10/30 06:21:29;;;;;;;;;3.67;3.67;;;;;19.30;51.54;99574.94;5099792;27;45245;-65
2021/10/30 06:23:58;;;;;;;;;6.33;5.00;;;;;19.29;51.57;99568.72;5100047;27;45241;-65
2021/10/30 06:26:25;;;;;;;;;5.00;5.00;;;;;19.30;51.88;99557.16;5100484;27;45197;-65
2021/10/30 06:28:51;;;;;;;;;5.00;5.00;;;;;19.31;51.64;99566.03;5100424;27;45448;-66
2021/10/30 06:31:17;;;;;;;;;5.00;5.00;;;;;19.31;52.04;99566.03;5099453;27;46327;-64
2021/10/30 06:33:42;;;;;;;;;5.00;5.00;;;;;19.30;51.88;99565.16;5099881;27;45297;-64
2021/10/30 06:36:08;;;;;;;;;5.00;4.00;;;;;19.31;51.89;99558.03;5100168;27;45388;-64
2021/10/30 06:38:34;;;;;;;;;6.00;6.00;;;;;19.30;51.89;99559.81;5099326;27;45317;-65
2021/10/30 06:41:01;;;;;;;;;5.67;4.00;;;;;19.30;51.95;99557.16;5099475;27;47222;-64
2021/10/30 06:43:29;;;;;;;;;6.00;6.00;;;;;19.32;52.03;99557.09;5099968;27;45419;-65
2021/10/30 06:45:55;;;;;;;;;5.00;5.00;;;;;19.31;51.90;99561.53;5099988;27;45471;-66
2021/10/30 06:48:21;;;;;;;;;5.00;5.00;;;;;19.32;52.05;99565.97;5099918;27;45483;-64
2021/10/30 06:50:47;;;;;;;;;3.33;3.33;;;;;19.30;51.91;99559.81;5099850;27;45484;-65
2021/10/30 06:53:12;;;;;;;;;5.67;5.00;;;;;19.31;51.94;99561.53;5099721;27;45480;-65
2021/10/30 06:55:38;;;;;;;;;5.67;5.67;;;;;19.31;51.71;99558.88;5099927;27;45438;-64
2021/10/30 06:58:03;;;;;;;;;6.00;5.00;;;;;19.32;51.88;99557.09;5099973;27;45292;-67
2021/10/30 07:00:29;;;;;;;;;5.00;4.00;;;;;19.32;52.13;99563.31;5099425;27;46150;-64
2021/10/30 07:02:54;;;;;;;;;5.00;5.00;;;;;19.33;52.17;99548.19;5099367;27;45340;-65
2021/10/30 07:05:21;;;;;;;;;6.00;5.00;;;;;19.33;51.86;99543.72;5099837;27;45331;-66
2021/10/30 07:07:46;;;;;;;;;5.00;5.00;;;;;19.32;52.16;99544.66;5100040;27;45696;-64
2021/10/30 07:10:11;;;;;;;;;4.33;4.33;;;;;19.33;52.20;99543.72;5099336;27;45959;-65
2021/10/30 07:12:38;;;;;;;;;6.00;5.00;;;;;19.34;52.08;99549.91;5099533;27;45335;-64
2021/10/30 07:15:08;;;;;;;;;3.67;3.67;;;;;19.34;51.92;99544.59;5099841;27;45314;-64
2021/10/30 07:17:34;;;;;;;;;5.00;4.00;;;;;19.35;51.96;99558.78;5099820;27;45388;-64
2021/10/30 07:20:00;;;;;;;;;5.00;5.00;;;;;19.33;51.93;99543.72;5099229;27;46051;-65
2021/10/30 07:22:25;;;;;;;;;3.67;3.67;;;;;19.35;52.16;99553.44;5099266;27;45236;-64
2021/10/30 07:24:51;;;;;;;;;5.33;4.67;;;;;19.35;51.83;99549.00;5099649;27;45300;-63
2021/10/30 07:27:17;;;;;;;;;5.33;5.33;;;;;19.35;52.10;99540.13;5099856;27;45351;-67
2021/10/30 07:29:46;;;;;;;;;4.33;4.33;;;;;19.35;52.18;99546.34;5098278;27;47156;-65
2021/10/30 07:32:13;;;;;;;;;4.00;4.00;;;;;19.33;51.92;99549.03;5098934;27;45333;-65
2021/10/30 07:34:38;;;;;;;;;4.33;4.00;;;;;19.33;52.00;99551.69;5098777;27;45356;-65
2021/10/30 07:37:04;;;;;;;;;6.00;4.00;;;;;19.33;51.86;99551.69;5099348;27;45443;-65
2021/10/30 07:39:29;;;;;;;;;3.00;3.00;;;;;19.33;51.89;99548.19;5098948;27;46232;-65
2021/10/30 07:41:54;;;;;;;;;4.00;4.00;;;;;19.32;51.93;99544.66;5099149;27;45225;-64
2021/10/30 07:44:20;;;;;;;;;4.00;4.00;;;;;19.33;52.19;99565.03;5098966;27;45289;-64
2021/10/30 07:46:45;;;;;;;;;4.00;4.00;;;;;19.32;52.13;99563.31;5099112;27;45333;-64
2021/10/30 07:49:11;;;;;;;;;5.00;5.00;;;;;19.33;52.07;99566.84;5098917;27;46032;-65
2021/10/30 07:51:36;;;;;;;;;3.00;3.00;;;;;19.33;51.96;99566.84;5099138;27;45198;-65
2021/10/30 07:54:01;;;;;;;;;3.00;3.00;;;;;19.34;52.39;99576.56;5099476;27;45268;-64
2021/10/30 07:56:27;;;;;;;;;4.00;4.00;;;;;19.35;52.33;99582.75;5099091;27;45368;-64
2021/10/30 07:58:53;;;;;;;;;5.67;4.00;;;;;19.33;52.22;99581.00;5098880;27;47274;-64
2021/10/30 08:01:18;;;;;;;;;5.00;4.67;;;;;19.35;52.25;99585.44;5098871;27;45340;-64
2021/10/30 08:03:44;;;;;;;;;4.00;4.00;;;;;19.36;52.09;99584.47;5098686;27;45313;-64
2021/10/30 08:06:09;;;;;;;;;4.00;4.00;;;;;19.35;52.40;99588.97;5099236;27;45429;-64
2021/10/30 08:08:35;;;;;;;;;6.00;4.00;;;;;19.36;52.24;99593.34;5098806;27;45974;-65
2021/10/30 08:11:02;;;;;;;;;4.00;4.00;;;;;19.35;52.11;99594.31;5098455;27;45354;-64
2021/10/30 08:13:28;;;;;;;;;4.00;4.00;;;;;19.36;52.50;99595.13;5098856;27;45380;-65
2021/10/30 08:15:54;;;;;;;;;5.00;5.00;;;;;19.35;52.09;99593.41;5098786;27;45467;-64
2021/10/30 08:18:19;;;;;;;;;6.00;3.33;;;;;19.37;52.21;99602.22;5098395;27;46376;-64
2021/10/30 08:20:46;;;;;;;;;4.67;4.00;;;;;19.35;52.04;99601.41;5098520;27;45294;-64
2021/10/30 08:23:11;;;;;;;;;4.00;4.00;;;;;19.36;52.29;99608.47;5098513;27;45322;-64
2021/10/30 08:25:37;;;;;;;;;3.00;3.00;;;;;19.36;52.37;99609.34;5098668;27;45254;-64
2021/10/30 08:28:03;;;;;;;;;3.00;3.00;;;;;19.37;52.10;99608.44;5098390;27;47112;-63
2021/10/30 08:30:29;;;;;;;;;5.00;5.00;;;;;19.36;52.07;99596.03;5098368;27;45419;-64
2021/10/30 08:32:54;;;;;;;;;6.33;4.00;;;;;19.36;52.36;99604.00;5098100;27;45472;-64
2021/10/30 08:35:20;;;;;;;;;3.00;3.00;;;;;19.34;52.47;99603.19;5098309;27;45470;-64
2021/10/30 08:37:46;;;;;;;;;4.33;4.33;;;;;19.35;52.19;99609.41;5098085;27;46356;-64
2021/10/30 08:40:13;;;;;;;;;4.00;3.33;;;;;19.36;52.06;99611.13;5097704;27;45449;-65
2021/10/30 08:42:44;;;;;;;;;4.67;4.67;;;;;19.36;52.09;99611.13;5098485;27;45360;-64
2021/10/30 08:45:10;;;;;;;;;3.00;3.00;;;;;19.35;52.27;99610.28;5098453;27;45290;-63
2021/10/30 08:47:38;;;;;;;;;5.33;4.00;;;;;19.36;52.25;99608.47;5098008;27;47133;-67
2021/10/30 08:50:03;;;;;;;;;5.00;3.33;;;;;19.35;52.27;99604.97;5097330;27;45719;-67
2021/10/30 08:52:29;;;;;;;;;4.00;3.00;;;;;19.36;52.45;99600.47;5098027;27;45415;-65
2021/10/30 08:54:54;;;;;;;;;4.33;4.00;;;;;19.38;52.09;99606.63;5097900;27;45385;-64
2021/10/30 08:57:20;;;;;;;;;5.33;5.00;;;;;19.39;52.21;99611.03;5097822;27;46911;-64
2021/10/30 08:59:46;;;;;;;;;4.00;3.67;;;;;19.37;52.29;99608.44;5097562;27;45300;-65
2021/10/30 09:02:31;;;;;;;;;6.00;3.00;;;;;19.38;52.21;99615.47;5097836;27;45282;-66
2021/10/30 09:05:08;;;;;;;;;4.00;4.00;;;;;19.38;52.40;99610.16;5097899;27;45229;-66
2021/10/30 09:07:35;;;;;;;;;6.00;4.00;;;;;19.38;52.26;99612.81;5097583;27;45315;-65
2021/10/30 09:10:00;;;;;;;;;5.00;3.33;;;;;19.39;52.31;99614.56;5097708;27;45367;-64
2021/10/30 09:12:26;;;;;;;;;7.33;4.00;;;;;19.41;52.24;99611.84;5097704;27;45587;-65
2021/10/30 09:14:51;;;;;;;;;3.00;3.00;;;;;19.41;52.20;99606.50;5097774;27;45454;-66
2021/10/30 09:17:20;;;;;;;;;5.00;4.00;;;;;19.40;52.37;99604.75;5097456;27;46269;-66
2021/10/30 09:19:51;;;;;;;;;6.00;4.00;;;;;19.41;52.35;99606.50;5097457;27;45352;-66
2021/10/30 09:22:18;;;;;;;;;3.33;3.33;;;;;19.41;52.49;99603.84;5097527;27;45393;-66
2021/10/30 09:25:07;;;;;;;;;5.00;4.00;;;;;19.41;52.46;99614.50;5097586;27;45277;-65
2021/10/30 09:27:50;;;;;;;;;7.33;6.00;;;;;19.40;52.62;99613.63;5097352;27;46316;-65
2021/10/30 09:30:47;;;;;;;;;6.00;6.00;;;;;19.40;52.61;99621.63;5097317;27;45408;-68
2021/10/30 09:33:12;;;;;;;;;6.00;6.00;;;;;19.40;52.55;99623.41;5073934;28;45462;-65
2021/10/30 09:35:43;;;;;;;;;6.00;6.00;;;;;19.40;52.46;99634.06;5075107;28;45508;-65
2021/10/30 09:38:32;;;;;;;;;5.00;3.33;;;;;19.41;52.48;99626.03;5074202;28;47633;-65
2021/10/30 09:41:01;;;;;;;;;7.33;7.00;;;;;19.41;52.76;99630.50;5074096;28;45312;-67
2021/10/30 09:43:26;;;;;;;;;7.00;7.00;;;;;19.41;52.57;99625.16;5074428;28;45362;-64
2021/10/30 09:45:54;;;;;;;;;5.67;5.67;;;;;19.41;52.59;99625.16;5074700;28;45474;-65
2021/10/30 09:48:23;;;;;;;;;6.67;6.33;;;;;19.41;52.77;99620.72;5074188;28;46519;-66
2021/10/30 09:50:54;;;;;;;;;5.67;5.67;;;;;19.42;52.68;99618.91;5074248;28;45417;-67
2021/10/30 09:53:29;;;;;;;;;9.33;6.00;;;;;19.43;53.03;99631.31;5073888;28;45324;-63
2021/10/30 09:55:58;;;;;;;;;6.00;6.00;;;;;19.44;52.82;99627.69;5074556;28;45400;-66
2021/10/30 09:58:33;;;;;;;;;7.00;6.00;;;;;19.44;52.73;99627.69;5074053;28;46387;-63
2021/10/30 10:01:00;;;;;;;;;7.33;5.00;;;;;19.44;52.56;99625.03;5074234;28;45446;-64
2021/10/30 10:03:29;;;;;;;;;7.67;6.00;;;;;19.44;53.01;99630.38;5074248;28;45482;-65
2021/10/30 10:05:56;;;;;;;;;7.00;6.00;;;;;19.44;52.78;99625.03;5074569;28;45308;-67
2021/10/30 10:08:24;;;;;;;;;6.00;5.67;;;;;19.43;52.53;99629.53;5073841;28;46143;-64
2021/10/30 10:10:53;;;;;;;;;7.00;6.67;;;;;19.44;52.56;99633.03;5055820;28;45347;-64
2021/10/30 10:13:19;;;;;;;;;6.33;5.33;;;;;19.44;52.80;99636.56;5056269;28;45320;-64
2021/10/30 10:15:45;;;;;;;;;7.33;7.33;;;;;19.44;52.73;99636.56;5056212;28;45299;-65
2021/10/30 10:18:10;;;;;;;;;8.33;6.33;;;;;19.45;52.95;99640.13;5055726;28;47559;-65
2021/10/30 10:20:37;;;;;;;;;7.00;7.00;;;;;19.45;52.55;99645.44;5056213;28;45504;-64
2021/10/30 10:23:02;;;;;;;;;6.00;6.00;;;;;19.46;53.08;99635.66;5055830;28;45284;-64
2021/10/30 10:25:33;;;;;;;;;8.00;5.00;;;;;19.46;52.93;99644.50;5056059;28;45358;-64
2021/10/30 10:28:21;;;;;;;;;4.00;4.00;;;;;19.45;52.67;99642.78;5055776;28;46223;-65
2021/10/30 10:31:21;;;;;;;;;6.00;5.00;;;;;19.45;53.03;99640.13;5055769;28;45485;-65
2021/10/30 10:34:07;;;;;;;;;6.67;5.00;;;;;19.45;53.09;99637.44;5069531;27;45449;-64
2021/10/30 10:36:33;;;;;;;;;6.00;6.00;;;;;19.44;52.80;99641.91;5096691;27;45841;-67
2021/10/30 10:38:58;;;;;;;;;7.00;5.33;;;;;19.46;52.80;99644.50;5096387;27;46932;-64
2021/10/30 10:41:46;;;;;;;;;5.00;4.00;;;;;19.47;53.03;99648.03;5096393;27;45329;-64
2021/10/30 10:44:22;;;;;;;;;7.33;5.00;;;;;19.47;52.89;99650.72;5096213;27;45343;-64
2021/10/30 10:46:53;;;;;;;;;7.00;5.00;;;;;19.46;52.75;99649.84;5096572;27;45235;-65
2021/10/30 10:49:30;;;;;;;;;8.67;6.00;;;;;19.47;53.04;99648.03;5095962;27;47192;-65
2021/10/30 10:52:20;;;;;;;;;6.67;5.00;;;;;19.47;52.93;99646.25;5096192;27;45247;-64
2021/10/30 10:55:04;;;;;;;;;6.33;5.00;;;;;19.47;52.92;99646.25;5096238;27;45454;-65
2021/10/30 10:57:47;;;;;;;;;10.33;5.67;;;;;19.48;52.98;99647.13;5096372;27;45439;-63
2021/10/30 11:00:18;;;;;;;;;4.00;4.00;;;;;19.48;52.86;99647.13;5096110;27;47060;-64
2021/10/30 11:02:49;;;;;;;;;4.33;4.33;;;;;19.48;53.06;99653.31;5095930;27;45293;-64
2021/10/30 11:05:17;;;;;;;;;7.00;4.33;;;;;19.48;52.83;99647.97;5097037;27;45439;-65
2021/10/30 11:07:52;;;;;;;;;5.67;5.67;;;;;19.48;53.17;99645.31;5099703;27;45472;-64
2021/10/30 11:10:33;;;;;;;;;4.00;4.00;;;;;19.48;52.97;99642.66;5099360;27;45592;-64
2021/10/30 11:12:59;;;;;;;;;5.67;4.00;;;;;19.49;53.10;99638.19;5099336;27;45316;-65
2021/10/30 11:15:44;;;;;;;;;5.00;4.00;;;;;19.48;53.09;99642.66;5099677;27;45420;-64
2021/10/30 11:18:33;;;;;;;;;6.67;4.33;;;;;19.49;53.06;99644.41;5099584;27;45446;-64
2021/10/30 11:21:04;;;;;;;;;5.33;4.00;;;;;19.49;53.21;99633.75;5099179;27;47157;-64
2021/10/30 11:23:32;;;;;;;;;6.00;4.00;;;;;19.48;53.23;99637.31;5098918;27;45455;-65
2021/10/30 11:26:08;;;;;;;;;5.33;5.00;;;;;19.49;53.02;99633.75;5099155;27;45446;-64
2021/10/30 11:28:34;;;;;;;;;4.33;4.00;;;;;19.51;53.16;99634.56;5099587;27;45456;-65
2021/10/30 11:31:11;;;;;;;;;6.00;6.00;;;;;19.52;53.31;99635.44;5099067;27;47063;-65
2021/10/30 11:33:38;;;;;;;;;7.00;6.00;;;;;19.51;53.23;99642.56;5099020;27;45301;-65